Time;durP1;ratioP1;P1;durP2;ratioP2;P2;SDS_P1;SDS_P2;PMS_P1;PMS_P2;Temp;Humidity;BMP_temperature;BMP_pressure;BME280_temperature;BME280_humidity;BME280_pressure;Samples;Min_cycle;Max_cycle;Signal;HPM_P1;HPM_P2
2023/01/13 00:00:18;;;;;;;25.70;11.48;;;;;;;4.82;89.47;99907.05;1829792;77;25641;-43
2023/01/13 00:02:48;;;;;;;21.42;10.78;;;;;;;4.81;89.50;99904.09;1829955;77;25581;-43
2023/01/13 00:05:16;;;;;;;27.67;10.80;;;;;;;4.82;89.40;99910.27;1829867;77;25833;-43
2023/01/13 00:07:42;;;;;;;25.70;10.63;;;;;;;4.80;89.35;99907.87;1813931;78;25472;-43
2023/01/13 00:10:11;;;;;;;19.95;10.35;;;;;;;4.81;89.30;99901.96;1813403;78;27500;-43
2023/01/13 00:12:43;;;;;;;23.25;11.45;;;;;;;4.81;89.27;99902.75;1829897;78;25813;-43
2023/01/13 00:15:12;;;;;;;27.52;12.58;;;;;;;4.89;89.36;99919.30;1829825;77;25571;-43
2023/01/13 00:17:38;;;;;;;24.07;12.15;;;;;;;4.81;89.24;99908.66;1829920;78;25500;-44
2023/01/13 00:20:09;;;;;;;23.57;12.40;;;;;;;4.79;89.10;99906.80;1829811;77;25431;-46
2023/01/13 00:22:36;;;;;;;24.47;12.20;;;;;;;4.77;89.00;99906.29;1829878;77;27460;-44
2023/01/13 00:25:05;;;;;;;24.10;11.97;;;;;;;4.76;88.91;99912.72;1829746;78;25544;-44
2023/01/13 00:27:33;;;;;;;25.48;10.80;;;;;;;4.73;88.94;99910.59;1829981;78;25534;-44
2023/01/13 00:30:00;;;;;;;21.45;11.05;;;;;;;4.67;88.96;99901.80;1829783;78;25451;-43
2023/01/13 00:32:28;;;;;;;24.25;10.50;;;;;;;4.66;89.01;99896.17;1829878;77;25398;-44
2023/01/13 00:34:55;;;;;;;25.72;10.13;;;;;;;4.61;88.91;99890.84;1829798;78;27456;-43
2023/01/13 00:37:22;;;;;;;26.62;10.68;;;;;;;4.58;89.02;99890.88;1795129;78;25568;-43
2023/01/13 00:39:52;;;;;;;21.65;10.20;;;;;;;4.56;88.99;99900.25;1827194;78;25539;-43
2023/01/13 00:45:06;;;;;;;23.62;10.25;;;;;;;4.49;89.05;99889.84;1827272;78;25442;-45
2023/01/13 00:47:33;;;;;;;26.35;11.00;;;;;;;4.46;89.11;99897.09;1827407;78;27508;-43
2023/01/13 00:49:59;;;;;;;24.32;10.78;;;;;;;4.41;89.08;99894.45;1827226;78;25584;-43
2023/01/13 00:52:25;;;;;;;20.85;10.00;;;;;;;4.37;89.13;99898.22;1827142;78;25444;-43
2023/01/13 00:54:52;;;;;;;23.12;11.03;;;;;;;4.33;89.18;99892.38;1827189;78;25855;-43
2023/01/13 00:57:19;;;;;;;23.38;11.05;;;;;;;4.30;89.22;99895.06;1827200;78;25462;-43
2023/01/13 00:59:46;;;;;;;25.75;10.93;;;;;;;4.27;89.26;99896.95;1827124;78;27496;-42
2023/01/13 01:02:13;;;;;;;21.80;10.70;;;;;;;4.21;89.29;99889.48;1827182;78;25470;-44
2023/01/13 01:04:40;;;;;;;16.90;8.90;;;;;;;4.18;89.44;99884.68;1827112;78;25532;-43
2023/01/13 01:07:07;;;;;;;20.25;9.90;;;;;;;4.15;89.59;99877.20;1827213;78;25373;-43
2023/01/13 01:09:33;;;;;;;29.25;10.45;;;;;;;4.14;89.82;99882.30;1810667;78;25560;-44
2023/01/13 01:12:02;;;;;;;22.00;9.95;;;;;;;4.12;89.88;99876.44;1827155;78;27567;-42
2023/01/13 01:14:28;;;;;;;18.80;9.33;;;;;;;4.10;90.04;99879.38;1827080;78;25386;-42
2023/01/13 01:16:54;;;;;;;21.87;9.40;;;;;;;4.10;90.18;99878.56;1827111;78;25540;-43
2023/01/13 01:19:20;;;;;;;19.40;8.90;;;;;;;4.09;90.30;99871.08;1827088;78;25561;-43
2023/01/13 01:21:47;;;;;;;24.45;9.45;;;;;;;4.08;90.41;99866.79;1827120;78;25542;-43
2023/01/13 01:24:15;;;;;;;20.27;9.25;;;;;;;4.08;90.45;99868.12;1827158;78;27680;-42
2023/01/13 01:26:42;;;;;;;23.00;10.10;;;;;;;4.09;90.57;99872.96;1826882;78;25364;-43
2023/01/13 01:29:14;;;;;;;19.30;8.83;;;;;;;4.10;90.65;99866.52;1827093;78;25512;-43
2023/01/13 01:31:42;;;;;;;27.58;10.18;;;;;;;4.09;90.68;99861.70;1827162;78;25604;-44
2023/01/13 01:34:08;;;;;;;19.65;11.30;;;;;;;4.09;90.75;99860.38;1810740;78;25418;-44
2023/01/13 01:36:35;;;;;;;22.95;10.63;;;;;;;4.09;90.80;99857.69;1827074;78;27587;-44
2023/01/13 01:39:03;;;;;;;25.85;13.60;;;;;;;4.09;90.85;99852.89;1827053;78;25390;-44
2023/01/13 01:41:34;;;;;;;15.28;8.88;;;;;;;4.09;90.83;99844.86;1810692;78;25640;-43
2023/01/13 01:44:42;;;;;;;21.02;10.20;;;;;;;4.09;90.92;99848.33;1827142;78;25443;-44
2023/01/13 01:47:14;;;;;;;22.00;10.75;;;;;;;4.09;90.95;99848.33;1827107;78;25546;-44
2023/01/13 01:49:43;;;;;;;16.85;8.60;;;;;;;4.10;90.94;99847.27;1827095;78;27472;-44
2023/01/13 01:52:21;;;;;;;23.85;9.05;;;;;;;4.10;91.02;99843.77;1827147;78;25717;-44
2023/01/13 01:55:07;;;;;;;21.23;10.48;;;;;;;4.09;91.02;99830.93;1827262;78;25591;-44
2023/01/13 01:57:42;;;;;;;18.65;9.15;;;;;;;4.10;91.07;99831.20;1827118;78;25531;-44
2023/01/13 02:00:10;;;;;;;21.42;9.73;;;;;;;4.09;91.26;99824.23;1820651;78;25591;-44
2023/01/13 02:02:38;;;;;;;19.70;8.40;;;;;;;4.10;91.30;99820.49;1810829;78;27529;-44
2023/01/13 02:05:07;;;;;;;16.27;8.33;;;;;;;4.10;91.47;99818.34;1827032;78;25645;-45
2023/01/13 02:07:38;;;;;;;20.10;8.78;;;;;;;4.09;91.55;99808.72;1827258;78;25541;-44
2023/01/13 02:10:10;;;;;;;21.48;10.15;;;;;;;4.11;91.75;99806.02;1827152;78;25606;-44
2023/01/13 02:12:40;;;;;;;17.87;8.25;;;;;;;4.09;91.71;99803.37;1827107;78;25578;-43
2023/01/13 02:15:16;;;;;;;21.00;9.68;;;;;;;4.07;91.76;99797.47;1827144;78;27507;-44
2023/01/13 02:18:08;;;;;;;15.95;8.85;;;;;;;4.08;91.94;99801.76;1826992;78;25423;-44
2023/01/13 02:20:58;;;;;;;20.77;11.03;;;;;;;4.07;91.99;99800.97;1827253;78;25364;-44
2023/01/13 02:27:08;;;;;;;17.62;9.60;;;;;;;4.08;92.06;99799.08;1810550;78;25466;-44
2023/01/13 02:33:15;;;;;;;23.90;12.28;;;;;;;4.07;92.12;99796.95;1776458;80;25630;-45
2023/01/13 02:36:02;;;;;;;18.10;9.00;;;;;;;4.06;92.14;99798.02;1735934;82;25697;-44
2023/01/13 02:38:34;;;;;;;20.12;9.60;;;;;;;4.06;92.22;99800.70;1736218;82;25603;-44
2023/01/13 02:44:06;;;;;;;21.95;10.05;;;;;;;4.06;92.28;99798.56;1736545;82;28051;-45
2023/01/13 02:46:40;;;;;;;24.63;15.00;;;;;;;4.08;92.36;99787.04;1710294;82;25906;-44
2023/01/13 02:49:12;;;;;;;21.27;12.78;;;;;;;4.08;92.35;99802.55;1711267;82;25530;-45
2023/01/13 02:51:41;;;;;;;22.35;11.28;;;;;;;4.08;92.37;99800.42;1710287;82;25495;-44
2023/01/13 02:54:16;;;;;;;22.00;12.03;;;;;;;4.09;92.37;99794.80;1736456;82;25575;-44
2023/01/13 02:56:47;;;;;;;24.87;15.98;;;;;;;4.10;92.47;99783.54;1736284;82;27494;-44
2023/01/13 02:59:15;;;;;;;41.88;37.75;;;;;;;4.10;92.39;99791.56;1736148;82;25590;-45
2023/01/13 03:01:42;;;;;;;30.40;21.17;;;;;;;4.09;92.46;99788.65;1736257;82;25452;-43
2023/01/13 03:04:33;;;;;;;29.15;26.33;;;;;;;4.10;92.52;99783.02;1736198;82;25708;-44
2023/01/13 03:07:11;;;;;;;53.23;48.73;;;;;;;4.10;92.53;99791.05;1743314;82;25622;-43
2023/01/13 03:09:46;;;;;;;70.87;65.28;;;;;;;4.11;92.59;99768.55;1720713;82;28113;-44
2023/01/13 03:12:27;;;;;;;35.70;32.20;;;;;;;4.11;92.62;99764.53;1791690;78;25491;-44
2023/01/13 03:14:58;;;;;;;57.58;52.55;;;;;;;4.12;92.79;99754.64;1825753;78;25538;-45
2023/01/13 03:17:54;;;;;;;75.03;68.72;;;;;;;4.14;92.76;99761.03;1826147;78;25468;-45
2023/01/13 03:20:29;;;;;;;80.22;73.85;;;;;;;4.14;92.80;99771.22;1738856;82;25440;-46
2023/01/13 03:23:16;;;;;;;82.55;75.95;;;;;;;4.16;93.05;99760.23;1738453;82;27474;-44
2023/01/13 03:25:57;;;;;;;88.35;81.35;;;;;;;4.17;93.07;99748.43;1738919;82;27355;-43
2023/01/13 03:28:32;;;;;;;66.77;61.60;;;;;;;4.17;93.08;99750.59;1738351;82;25506;-44
2023/01/13 03:31:07;;;;;;;55.48;50.50;;;;;;;4.18;92.92;99750.04;1737897;82;26021;-44
2023/01/13 03:33:47;;;;;;;75.30;69.77;;;;;;;4.16;93.10;99754.33;1714354;82;25666;-44
2023/01/13 03:36:17;;;;;;;87.85;80.47;;;;;;;4.15;93.09;99747.91;1739104;82;27479;-42
2023/01/13 03:38:50;;;;;;;88.55;81.92;;;;;;;4.16;93.25;99753.55;1717227;82;27301;-43
2023/01/13 03:41:28;;;;;;;86.87;79.97;;;;;;;4.17;93.36;99754.60;1743477;82;25587;-44
2023/01/13 03:44:32;;;;;;;90.07;82.95;;;;;;;4.17;93.57;99751.92;1743528;82;25584;-43
2023/01/13 03:47:40;;;;;;;92.00;84.95;;;;;;;4.20;93.79;99750.55;1743512;82;25667;-44
2023/01/13 03:50:19;;;;;;;90.05;83.10;;;;;;;4.22;94.01;99748.39;1743500;82;29635;-44
2023/01/13 03:52:54;;;;;;;88.07;81.15;;;;;;;4.24;94.13;99751.58;1743555;82;25591;-43
2023/01/13 03:55:26;;;;;;;87.08;80.15;;;;;;;4.27;94.34;99743.00;1743516;82;25643;-43
2023/01/13 03:58:01;;;;;;;62.33;57.43;;;;;;;4.29;94.45;99742.99;1812411;78;25549;-43
2023/01/13 04:00:33;;;;;;;29.52;23.15;;;;;;;4.34;94.49;99743.47;1823349;78;25437;-42
2023/01/13 04:03:08;;;;;;;21.33;11.20;;;;;;;4.37;94.53;99746.92;1823740;78;27479;-43
2023/01/13 04:05:39;;;;;;;21.17;12.50;;;;;;;4.41;94.60;99745.82;1791278;79;25738;-43
2023/01/13 04:08:20;;;;;;;20.23;11.97;;;;;;;4.42;94.73;99748.22;1791356;79;25406;-45
2023/01/13 04:11:04;;;;;;;40.70;37.45;;;;;;;4.45;94.79;99741.52;1791297;80;25636;-45
2023/01/13 04:13:35;;;;;;;72.55;67.30;;;;;;;4.46;94.80;99742.58;1791389;80;25602;-44
2023/01/13 04:16:06;;;;;;;86.90;80.00;;;;;;;4.47;94.83;99737.47;1791346;80;27512;-44
2023/01/13 04:18:37;;;;;;;87.62;80.55;;;;;;;4.48;94.91;99736.95;1769864;80;25542;-45
2023/01/13 04:21:06;;;;;;;86.42;79.72;;;;;;;4.49;94.81;99743.36;1791272;80;25571;-44
2023/01/13 04:23:33;;;;;;;86.92;80.28;;;;;;;4.51;94.89;99739.59;1791403;79;25379;-45
2023/01/13 04:26:00;;;;;;;86.57;80.22;;;;;;;4.52;95.11;99744.66;1769813;80;25467;-44
2023/01/13 04:28:26;;;;;;;90.50;82.85;;;;;;;4.51;95.29;99735.02;1791370;79;27700;-44
2023/01/13 04:30:53;;;;;;;86.75;80.10;;;;;;;4.51;95.18;99733.68;1791143;80;25929;-45
2023/01/13 04:33:20;;;;;;;78.05;72.15;;;;;;;4.52;95.11;99734.50;1791227;80;25448;-44
2023/01/13 04:35:48;;;;;;;88.12;81.00;;;;;;;4.52;95.06;99733.16;1769661;80;25546;-45
2023/01/13 04:38:18;;;;;;;88.62;81.35;;;;;;;4.51;95.20;99738.25;1791134;79;25628;-44
2023/01/13 04:40:46;;;;;;;88.00;81.50;;;;;;;4.53;95.12;99737.42;1791321;80;27573;-44
2023/01/13 04:43:14;;;;;;;85.75;79.12;;;;;;;4.53;95.00;99724.03;1791171;79;25870;-44
2023/01/13 04:45:43;;;;;;;85.95;79.17;;;;;;;4.53;95.04;99722.69;1791504;79;25568;-44
2023/01/13 04:48:11;;;;;;;87.55;80.87;;;;;;;4.55;95.00;99725.91;1791216;80;25473;-44
2023/01/13 04:50:39;;;;;;;87.88;80.90;;;;;;;4.56;94.97;99725.59;1791282;79;25594;-44
2023/01/13 04:53:06;;;;;;;86.63;79.87;;;;;;;4.57;94.90;99725.87;1791274;79;28088;-44
2023/01/13 04:55:32;;;;;;;87.80;81.12;;;;;;;4.58;94.89;99722.12;1791170;79;25596;-46
2023/01/13 04:58:08;;;;;;;85.77;79.22;;;;;;;4.59;94.87;99727.72;1791194;79;25619;-47
2023/01/13 05:00:36;;;;;;;93.05;85.42;;;;;;;4.60;94.88;99721.29;1791284;79;25718;-45
2023/01/13 05:03:04;;;;;;;88.67;81.97;;;;;;;4.63;94.95;99726.61;1791243;80;25474;-45
2023/01/13 05:05:32;;;;;;;92.92;85.53;;;;;;;4.63;95.25;99733.30;1791311;80;27512;-44
2023/01/13 05:07:59;;;;;;;87.02;80.35;;;;;;;4.63;95.29;99731.97;1791153;80;26079;-46
2023/01/13 05:10:27;;;;;;;86.00;79.50;;;;;;;4.62;95.54;99727.16;1754710;80;25390;-44
2023/01/13 05:18:27;;;;;;;87.45;80.87;;;;;;;4.56;96.15;99726.94;1791270;80;28087;-43
2023/01/13 05:20:53;;;;;;;85.83;79.32;;;;;;;4.55;96.83;99722.68;1791185;79;25519;-44
2023/01/13 05:26:06;;;;;;;87.30;80.53;;;;;;;4.51;97.07;99728.33;1791230;80;25560;-45
2023/01/13 05:28:34;;;;;;;21.07;14.53;;;;;;;4.47;97.32;99742.03;1791237;80;25458;-44
2023/01/13 05:31:02;;;;;;;14.07;7.45;;;;;;;4.47;97.04;99732.66;1791219;80;28281;-45
2023/01/13 05:33:28;;;;;;;17.30;11.15;;;;;;;4.45;97.03;99731.59;1791115;80;25609;-44
2023/01/13 05:35:54;;;;;;;12.90;7.35;;;;;;;4.44;97.54;99735.38;1791246;80;25339;-46
2023/01/13 05:38:21;;;;;;;53.13;48.83;;;;;;;4.43;97.30;99728.41;1791073;79;25571;-44
2023/01/13 05:43:33;;;;;;;85.87;79.25;;;;;;;4.45;97.55;99726.80;1769686;80;27383;-45
2023/01/13 05:46:06;;;;;;;74.90;69.22;;;;;;;4.44;97.95;99734.04;1791061;79;25423;-44
2023/01/13 05:48:40;;;;;;;86.00;79.27;;;;;;;4.47;98.09;99734.00;1791257;80;25607;-44
2023/01/13 05:51:11;;;;;;;86.55;80.05;;;;;;;4.45;98.56;99734.83;1791298;80;26014;-44
2023/01/13 05:53:39;;;;;;;87.12;79.92;;;;;;;4.44;98.48;99736.72;1791371;79;25458;-43
2023/01/13 05:56:09;;;;;;;84.03;77.67;;;;;;;4.44;99.09;99731.36;1791159;80;27479;-47
2023/01/13 05:58:37;;;;;;;35.38;32.45;;;;;;;4.44;99.00;99734.04;1791153;80;25748;-45
2023/01/13 06:01:08;;;;;;;27.98;25.25;;;;;;;4.43;99.15;99735.11;1791169;79;25391;-47
2023/01/13 06:03:36;;;;;;;72.75;67.22;;;;;;;4.41;99.13;99738.61;1791289;80;25588;-47
2023/01/13 06:06:07;;;;;;;66.22;60.98;;;;;;;4.42;99.20;99743.41;1791368;79;25396;-45
2023/01/13 06:08:33;;;;;;;84.42;78.12;;;;;;;4.41;99.63;99758.70;1791232;79;27614;-48
2023/01/13 06:11:00;;;;;;;88.95;81.95;;;;;;;4.39;99.95;99747.98;1791058;79;25433;-47
2023/01/13 06:13:28;;;;;;;84.05;77.65;;;;;;;4.38;100.00;99753.89;1769714;80;25425;-46
2023/01/13 06:15:58;;;;;;;88.50;81.97;;;;;;;4.35;100.00;99744.28;1791176;79;25463;-47
2023/01/13 06:18:26;;;;;;;85.85;79.60;;;;;;;4.36;100.00;99752.05;1791267;79;25425;-46
2023/01/13 06:20:53;;;;;;;90.83;84.07;;;;;;;4.33;100.00;99756.61;1791165;80;29722;-44
2023/01/13 06:23:20;;;;;;;87.33;80.75;;;;;;;4.31;100.00;99753.42;1791089;80;25614;-43
2023/01/13 06:26:13;;;;;;;87.08;80.70;;;;;;;4.30;100.00;99753.94;1791188;80;25459;-44
2023/01/13 06:28:39;;;;;;;87.27;80.72;;;;;;;4.29;100.00;99756.89;1791236;80;27715;-44
2023/01/13 06:31:07;;;;;;;86.35;80.28;;;;;;;4.28;100.00;99755.31;1791116;79;25537;-44
2023/01/13 06:33:45;;;;;;;62.17;57.43;;;;;;;4.28;100.00;99743.27;1791459;80;27506;-43
2023/01/13 06:36:26;;;;;;;85.53;79.20;;;;;;;4.27;100.00;99750.52;1791193;80;26075;-46
2023/01/13 06:38:58;;;;;;;84.10;78.12;;;;;;;4.27;100.00;99737.13;1792913;79;25393;-45
2023/01/13 06:44:13;;;;;;;85.85;79.07;;;;;;;4.28;100.00;99741.92;1797112;79;25525;-44
2023/01/13 06:46:40;;;;;;;86.35;79.85;;;;;;;4.28;100.00;99752.64;1797098;79;27568;-43
2023/01/13 06:49:08;;;;;;;90.12;82.67;;;;;;;4.29;100.00;99758.23;1796968;79;25375;-45
2023/01/13 06:51:36;;;;;;;85.83;79.35;;;;;;;4.27;100.00;99752.36;1797105;79;25475;-44
2023/01/13 06:54:03;;;;;;;89.90;82.88;;;;;;;4.26;100.00;99750.23;1797007;79;25573;-44
2023/01/13 06:56:30;;;;;;;86.85;80.28;;;;;;;4.26;100.00;99761.50;1797063;79;25450;-43
2023/01/13 06:58:56;;;;;;;88.50;81.97;;;;;;;4.25;100.00;99759.34;1797123;79;27418;-44
2023/01/13 07:01:22;;;;;;;88.97;82.25;;;;;;;4.24;100.00;99751.06;1797144;79;25543;-46
2023/01/13 07:03:48;;;;;;;88.58;81.45;;;;;;;4.22;100.00;99758.58;1797309;79;25532;-47
2023/01/13 07:06:14;;;;;;;91.90;85.00;;;;;;;4.21;100.00;99756.97;1797144;79;25515;-45
2023/01/13 07:08:41;;;;;;;88.50;81.87;;;;;;;4.20;100.00;99754.02;1797279;79;25454;-43
2023/01/13 07:11:07;;;;;;;90.28;83.15;;;;;;;4.19;100.00;99755.63;1797216;79;27492;-45
2023/01/13 07:16:23;;;;;;;87.90;81.22;;;;;;;4.19;100.00;99756.45;1797058;79;25368;-44
2023/01/13 07:18:50;;;;;;;;;;;;;;;4.17;100.00;99746.57;1799873;79;25940;-44
2023/01/13 07:21:18;;;;;;;89.85;82.78;;;;;;;4.19;100.00;99752.44;1797277;79;25542;-44
2023/01/13 07:23:47;;;;;;;86.82;80.42;;;;;;;4.19;100.00;99756.97;1797233;79;27528;-44
2023/01/13 07:26:16;;;;;;;91.97;84.67;;;;;;;4.21;100.00;99752.16;1797368;79;25431;-45
2023/01/13 07:28:44;;;;;;;91.12;83.97;;;;;;;4.21;100.00;99750.83;1781778;79;25558;-46
2023/01/13 07:31:19;;;;;;;89.85;83.05;;;;;;;4.22;100.00;99754.56;1797194;79;25684;-46
2023/01/13 07:33:48;;;;;;;90.65;83.37;;;;;;;4.25;100.00;99751.85;1781561;79;25574;-44
2023/01/13 07:36:16;;;;;;;96.25;88.62;;;;;;;4.26;100.00;99766.85;1797235;79;27482;-45
2023/01/13 07:38:45;;;;;;;90.15;82.90;;;;;;;4.28;100.00;99761.46;1796430;79;25803;-44
2023/01/13 07:44:05;;;;;;;90.00;82.87;;;;;;;4.32;100.00;99763.03;1791581;80;26157;-43
2023/01/13 07:46:33;;;;;;;92.53;85.10;;;;;;;4.34;100.00;99759.53;1791342;79;25431;-44
2023/01/13 07:49:00;;;;;;;88.17;81.25;;;;;;;4.36;100.00;99763.27;1791895;80;27458;-43
2023/01/13 07:51:26;;;;;;;72.47;66.92;;;;;;;4.37;100.00;99759.52;1790957;80;25589;-44
2023/01/13 07:53:53;;;;;;;88.30;81.37;;;;;;;4.39;100.00;99760.04;1790411;79;25681;-43
2023/01/13 07:56:19;;;;;;;88.97;82.47;;;;;;;4.40;100.00;99757.08;1770160;80;25683;-45
2023/01/13 07:58:49;;;;;;;88.72;81.87;;;;;;;4.42;100.00;99754.12;1791348;79;25491;-43
2023/01/13 08:01:15;;;;;;;88.60;81.95;;;;;;;4.42;100.00;99752.23;1791271;79;27544;-44
2023/01/13 08:03:42;;;;;;;88.20;81.60;;;;;;;4.45;100.00;99770.43;1791191;79;25360;-43
2023/01/13 08:06:10;;;;;;;86.42;79.90;;;;;;;4.46;100.00;99761.84;1791311;79;25454;-44
2023/01/13 08:08:38;;;;;;;89.92;82.75;;;;;;;4.49;100.00;99758.09;1791258;79;25522;-43
2023/01/13 08:11:08;;;;;;;85.40;78.37;;;;;;;4.52;100.00;99776.02;1791350;79;25448;-43
2023/01/13 08:13:34;;;;;;;;;;;;;;;4.54;100.00;99761.25;1793974;79;27530;-42
2023/01/13 08:16:08;;;;;;;86.53;79.60;;;;;;;4.57;100.00;99760.69;1791255;80;25695;-42
2023/01/13 08:18:37;;;;;;;87.42;80.80;;;;;;;4.57;100.00;99753.99;1790111;79;25568;-44
2023/01/13 08:21:12;;;;;;;24.37;11.78;;;;;;;4.58;100.00;99766.31;1791520;80;25571;-43
2023/01/13 08:23:42;;;;;;;19.85;9.50;;;;;;;4.61;100.00;99757.70;1790828;79;25605;-44
2023/01/13 08:26:16;;;;;;;14.15;8.30;;;;;;;4.65;100.00;99766.78;1791433;79;27560;-45
2023/01/13 08:28:43;;;;;;;19.32;10.80;;;;;;;4.67;100.00;99766.50;1791350;79;25742;-44
2023/01/13 08:31:15;;;;;;;19.57;10.55;;;;;;;4.72;100.00;99759.76;1791333;80;25534;-42
2023/01/13 08:33:42;;;;;;;16.90;9.28;;;;;;;4.74;100.00;99766.97;1770070;80;25546;-43
2023/01/13 08:36:11;;;;;;;17.35;9.13;;;;;;;4.76;100.00;99773.39;1791352;80;25547;-41
2023/01/13 08:38:39;;;;;;;20.62;9.73;;;;;;;4.79;100.00;99762.89;1791474;79;27484;-43
2023/01/13 08:41:12;;;;;;;16.85;9.18;;;;;;;4.81;100.00;99767.98;1796871;79;25770;-42
2023/01/13 08:43:39;;;;;;;14.68;8.23;;;;;;;4.81;100.00;99767.42;1781462;79;25472;-43
2023/01/13 08:46:06;;;;;;;18.40;8.98;;;;;;;4.83;100.00;99765.25;1797121;79;25598;-44
2023/01/13 08:48:34;;;;;;;13.08;8.40;;;;;;;4.88;100.00;99763.08;1797150;79;25426;-42
2023/01/13 08:51:07;;;;;;;18.62;8.78;;;;;;;4.92;100.00;99770.82;1797145;79;27485;-43
2023/01/13 08:53:34;;;;;;;15.50;8.70;;;;;;;4.95;100.00;99765.42;1797085;79;25425;-43
2023/01/13 08:56:00;;;;;;;14.93;7.97;;;;;;;5.00;100.00;99770.17;1797151;79;25399;-43
2023/01/13 08:58:26;;;;;;;14.58;7.58;;;;;;;5.04;100.00;99766.41;1797053;79;25574;-42
2023/01/13 09:00:52;;;;;;;20.50;8.35;;;;;;;5.05;100.00;99763.97;1797190;79;25484;-43
2023/01/13 09:03:18;;;;;;;11.40;7.17;;;;;;;5.10;100.00;99767.94;1797150;79;29747;-48
2023/01/13 09:05:45;;;;;;;16.00;8.03;;;;;;;5.12;100.00;99770.34;1780024;79;27185;-42
2023/01/13 09:08:12;;;;;;;13.98;7.42;;;;;;;5.15;100.00;99778.61;1797102;79;25541;-44
2023/01/13 09:10:39;;;;;;;13.48;7.83;;;;;;;5.15;100.00;99778.61;1797090;79;25518;-45
2023/01/13 09:13:11;;;;;;;12.85;7.60;;;;;;;5.18;100.00;99774.02;1797148;79;25527;-43
2023/01/13 09:15:41;;;;;;;16.90;8.18;;;;;;;5.20;100.00;99770.50;1797148;79;27450;-43
2023/01/13 09:18:07;;;;;;;14.70;7.85;;;;;;;5.22;100.00;99778.27;1797060;79;25628;-42
2023/01/13 09:20:33;;;;;;;16.97;9.30;;;;;;;5.23;100.00;99769.94;1797071;79;25597;-42
2023/01/13 09:23:00;;;;;;;14.68;8.30;;;;;;;5.27;100.00;99765.35;1797123;79;34661;-45
2023/01/13 09:25:26;;;;;;;14.23;7.75;;;;;;;5.27;100.00;99761.33;1797190;79;25427;-45
2023/01/13 09:27:52;;;;;;;19.75;9.03;;;;;;;5.27;100.00;99765.35;1797126;79;26942;-44
2023/01/13 09:30:20;;;;;;;13.88;9.13;;;;;;;5.29;100.00;99758.60;1797030;79;25590;-44
2023/01/13 09:32:46;;;;;;;18.27;14.28;;;;;;;5.31;100.00;99755.63;1797157;79;25508;-45
2023/01/13 09:35:12;;;;;;;87.72;81.15;;;;;;;5.32;100.00;99760.72;1797076;79;25545;-43
2023/01/13 09:37:41;;;;;;;18.48;9.65;;;;;;;5.32;100.00;99755.35;1797172;79;25562;-43
2023/01/13 09:40:16;;;;;;;16.12;9.90;;;;;;;5.37;100.00;99763.34;1794686;79;27494;-43
2023/01/13 09:46:01;;;;;;;17.95;9.70;;;;;;;5.39;100.00;99776.46;1791303;80;25518;-41
2023/01/13 09:48:33;;;;;;;18.60;10.95;;;;;;;5.41;100.00;99746.12;1790859;79;25530;-44
2023/01/13 09:51:16;;;;;;;15.05;9.78;;;;;;;5.43;100.00;99746.62;1791283;79;25512;-41
2023/01/13 09:53:48;;;;;;;18.60;9.85;;;;;;;5.47;100.00;99761.08;1791369;79;27504;-45
2023/01/13 09:56:14;;;;;;;18.12;9.83;;;;;;;5.49;100.00;99750.85;1770992;80;25672;-43
2023/01/13 09:58:43;;;;;;;16.93;10.10;;;;;;;5.52;100.00;99756.20;1791189;80;25390;-42
2023/01/13 10:01:33;;;;;;;15.40;9.45;;;;;;;5.55;100.00;99751.58;1791355;80;25515;-43
2023/01/13 10:04:15;;;;;;;15.23;9.58;;;;;;;5.54;100.00;99740.05;1790379;79;25582;-44
2023/01/13 10:06:47;;;;;;;17.05;8.75;;;;;;;5.57;100.00;99738.14;1791238;79;28028;-43
2023/01/13 10:09:19;;;;;;;17.17;9.68;;;;;;;5.59;100.00;99741.88;1790405;79;25625;-44
2023/01/13 10:14:55;;;;;;;16.12;9.75;;;;;;;5.62;100.00;99739.97;1791174;80;25565;-43
2023/01/13 10:17:36;;;;;;;16.70;9.60;;;;;;;5.65;100.00;99735.89;1791219;79;25412;-45
2023/01/13 10:20:28;;;;;;;14.38;9.33;;;;;;;5.66;100.00;99734.82;1791174;79;27484;-45
2023/01/13 10:23:33;;;;;;;14.63;9.00;;;;;;;5.67;100.00;99735.88;1791121;79;25759;-44
2023/01/13 10:26:29;;;;;;;14.53;10.30;;;;;;;5.69;100.00;99732.35;1790760;79;25425;-43
2023/01/13 10:28:57;;;;;;;15.13;8.38;;;;;;;5.71;100.00;99727.48;1791111;80;25538;-42
2023/01/13 10:31:25;;;;;;;16.87;9.20;;;;;;;5.73;100.00;99729.88;1791183;79;25415;-43
2023/01/13 10:34:03;;;;;;;16.67;8.80;;;;;;;5.73;100.00;99725.30;1769943;80;27340;-43
2023/01/13 10:36:29;;;;;;;13.55;8.78;;;;;;;5.74;100.00;99730.94;1791151;80;25652;-44
2023/01/13 10:39:09;;;;;;;14.93;9.68;;;;;;;5.76;100.00;99726.07;1791134;79;25400;-43
2023/01/13 10:41:36;;;;;;;15.53;9.05;;;;;;;5.79;100.00;99724.16;1796460;79;25652;-44
2023/01/13 10:44:09;;;;;;;17.30;8.48;;;;;;;5.83;100.00;99726.27;1797100;79;25576;-43
2023/01/13 10:46:53;;;;;;;14.07;8.43;;;;;;;5.84;100.00;99720.61;1792895;79;28042;-44
2023/01/13 10:49:35;;;;;;;15.95;8.75;;;;;;;5.86;100.00;99717.08;1797156;79;25558;-44
2023/01/13 10:52:07;;;;;;;13.83;9.08;;;;;;;5.88;100.00;99724.30;1797126;79;25604;-46
2023/01/13 10:54:35;;;;;;;14.38;8.90;;;;;;;5.89;100.00;99723.22;1790298;79;25538;-44
2023/01/13 10:57:22;;;;;;;18.00;9.20;;;;;;;5.92;100.00;99718.58;1797088;79;25398;-43
2023/01/13 10:59:51;;;;;;;14.90;8.48;;;;;;;5.93;100.00;99714.03;1797145;79;27464;-43
2023/01/13 11:02:29;;;;;;;12.00;7.90;;;;;;;5.96;100.00;99717.52;1797155;79;30997;-42
2023/01/13 11:05:04;;;;;;;13.40;8.05;;;;;;;5.97;100.00;99716.41;1797114;79;25562;-43
2023/01/13 11:07:39;;;;;;;16.40;8.80;;;;;;;5.97;100.00;99707.80;1795713;79;25664;-42
2023/01/13 11:10:26;;;;;;;11.73;7.87;;;;;;;6.00;100.00;99708.33;1797236;79;25608;-43
2023/01/13 11:13:12;;;;;;;13.60;9.25;;;;;;;6.02;100.00;99704.24;1797089;79;27386;-43
2023/01/13 11:15:56;;;;;;;14.80;7.97;;;;;;;6.04;100.00;99703.95;1781635;79;25472;-43
2023/01/13 11:18:39;;;;;;;16.45;8.73;;;;;;;6.05;100.00;99700.98;1796919;79;25590;-42
2023/01/13 11:21:22;;;;;;;13.20;8.40;;;;;;;6.07;100.00;99707.41;1797085;79;25696;-43
2023/01/13 11:23:54;;;;;;;18.98;8.78;;;;;;;6.10;100.00;99705.48;1781501;79;25629;-41
2023/01/13 11:26:26;;;;;;;15.40;8.65;;;;;;;6.12;100.00;99706.77;1795264;79;27508;-41
2023/01/13 11:28:58;;;;;;;15.38;9.28;;;;;;;6.16;100.00;99705.11;1780118;79;25580;-43
2023/01/13 11:31:50;;;;;;;13.65;8.30;;;;;;;6.20;100.00;99697.26;1796647;79;25431;-43
2023/01/13 11:34:35;;;;;;;14.43;8.18;;;;;;;6.23;100.00;99707.94;1797112;79;25608;-43
2023/01/13 11:37:09;;;;;;;14.53;8.43;;;;;;;6.25;100.00;99706.57;1797155;79;25463;-45
2023/01/13 11:39:52;;;;;;;16.12;8.78;;;;;;;6.29;100.00;99716.97;1779478;79;27590;-45
2023/01/13 11:42:38;;;;;;;15.18;8.73;;;;;;;6.30;100.00;99718.57;1797082;79;25512;-43
2023/01/13 11:45:28;;;;;;;14.28;8.48;;;;;;;6.32;100.00;99698.92;1797224;79;25596;-44
2023/01/13 11:47:59;;;;;;;15.93;8.43;;;;;;;6.33;100.00;99702.40;1797248;79;25526;-43
2023/01/13 11:51:06;;;;;;;12.43;8.63;;;;;;;6.36;100.00;99701.81;1797224;79;25587;-45
2023/01/13 11:53:59;;;;;;;14.50;9.20;;;;;;;6.35;100.00;99706.92;1797222;79;29605;-45
2023/01/13 11:57:05;;;;;;;16.65;9.80;;;;;;;6.36;100.00;99691.07;1797141;79;25535;-43
2023/01/13 12:00:14;;;;;;;17.02;9.65;;;;;;;6.38;100.00;99697.49;1796456;79;25545;-46
2023/01/13 12:03:04;;;;;;;16.48;10.05;;;;;;;6.41;100.00;99691.53;1797339;79;25651;-43
2023/01/13 12:05:37;;;;;;;;;;;;;;;6.47;100.00;99684.96;1799880;79;25523;-42
2023/01/13 12:08:37;;;;;;;14.60;8.88;;;;;;;6.51;100.00;99684.08;1780140;79;27883;-42
2023/01/13 12:11:27;;;;;;;14.60;8.83;;;;;;;6.54;100.00;99684.05;1797187;79;25395;-42
2023/01/13 12:14:19;;;;;;;19.02;9.08;;;;;;;6.59;100.00;99681.80;1748230;82;25655;-44
2023/01/13 12:16:50;;;;;;;13.03;8.75;;;;;;;6.64;100.00;99679.02;1746349;82;26487;-43
2023/01/13 12:19:27;;;;;;;13.85;8.85;;;;;;;6.68;100.00;99676.78;1748325;82;25603;-45
2023/01/13 12:22:23;;;;;;;14.38;9.10;;;;;;;6.70;100.00;99669.77;1746822;82;28175;-43
2023/01/13 12:24:58;;;;;;;15.80;9.28;;;;;;;6.73;100.00;99674.56;1748249;82;25598;-43
2023/01/13 12:27:52;;;;;;;16.32;9.33;;;;;;;6.77;100.00;99676.89;1748273;82;25438;-44